sensor_id;sensor_type;location;lat;lon;timestamp;pressure;altitude;pressure_sealevel;temperature;humidity
10470;BME280;5282;47.052;15.458;2023-03-21T00:00:54;97662.84;;;6.96;100.00
10470;BME280;5282;47.052;15.458;2023-03-21T00:03:24;97661.03;;;7.06;100.00
10470;BME280;5282;47.052;15.458;2023-03-21T00:05:52;97657.06;;;7.10;100.00
10470;BME280;5282;47.052;15.458;2023-03-21T00:08:20;97651.41;;;7.14;100.00
10470;BME280;5282;47.052;15.458;2023-03-21T00:10:47;97659.16;;;7.17;100.00
10470;BME280;5282;47.052;15.458;2023-03-21T00:13:22;97654.38;;;7.20;100.00
10470;BME280;5282;47.052;15.458;2023-03-21T00:15:51;97648.84;;;7.22;100.00
10470;BME280;5282;47.052;15.458;2023-03-21T00:18:20;97654.38;;;7.20;100.00
10470;BME280;5282;47.052;15.458;2023-03-21T00:20:55;97652.94;;;7.26;100.00
10470;BME280;5282;47.052;15.458;2023-03-21T00:23:23;97651.81;;;7.29;100.00
10470;BME280;5282;47.052;15.458;2023-03-21T00:25:50;97648.75;;;7.23;100.00
10470;BME280;5282;47.052;15.458;2023-03-21T00:28:17;97651.53;;;7.32;100.00
10470;BME280;5282;47.052;15.458;2023-03-21T00:30:46;97643.06;;;7.36;100.00
10470;BME280;5282;47.052;15.458;2023-03-21T00:33:13;97642.78;;;7.39;100.00
10470;BME280;5282;47.052;15.458;2023-03-21T00:35:41;97643.59;;;7.50;100.00
10470;BME280;5282;47.052;15.458;2023-03-21T00:38:10;97639.38;;;7.47;100.00
10470;BME280;5282;47.052;15.458;2023-03-21T00:40:37;97641.47;;;7.44;100.00
10470;BME280;5282;47.052;15.458;2023-03-21T00:43:04;97643.88;;;7.47;100.00
10470;BME280;5282;47.052;15.458;2023-03-21T00:45:31;97639.66;;;7.44;100.00
10470;BME280;5282;47.052;15.458;2023-03-21T00:47:59;97632.47;;;7.45;100.00
10470;BME280;5282;47.052;15.458;2023-03-21T00:50:26;97634.31;;;7.44;100.00
10470;BME280;5282;47.052;15.458;2023-03-21T00:52:53;97635.56;;;7.40;100.00
10470;BME280;5282;47.052;15.458;2023-03-21T00:55:22;97631.47;;;7.46;100.00
10470;BME280;5282;47.052;15.458;2023-03-21T00:57:49;97640.47;;;7.54;100.00
10470;BME280;5282;47.052;15.458;2023-03-21T01:00:17;97637.34;;;7.59;100.00
10470;BME280;5282;47.052;15.458;2023-03-21T01:02:45;97632.97;;;7.58;100.00
10470;BME280;5282;47.052;15.458;2023-03-21T01:05:26;97636.53;;;7.59;100.00
10470;BME280;5282;47.052;15.458;2023-03-21T01:08:07;97630.91;;;7.52;100.00
10470;BME280;5282;47.052;15.458;2023-03-21T01:10:37;97623.25;;;7.57;100.00
10470;BME280;5282;47.052;15.458;2023-03-21T01:13:04;97631.00;;;7.60;100.00
10470;BME280;5282;47.052;15.458;2023-03-21T01:15:31;97626.63;;;7.59;100.00
10470;BME280;5282;47.052;15.458;2023-03-21T01:17:58;97621.38;;;7.67;100.00
10470;BME280;5282;47.052;15.458;2023-03-21T01:20:27;97627.84;;;7.75;100.00
10470;BME280;5282;47.052;15.458;2023-03-21T01:22:54;97627.63;;;7.58;100.00
10470;BME280;5282;47.052;15.458;2023-03-21T01:25:21;97624.94;;;7.58;100.00
10470;BME280;5282;47.052;15.458;2023-03-21T01:27:48;97624.97;;;7.48;100.00
10470;BME280;5282;47.052;15.458;2023-03-21T01:30:16;97622.97;;;7.60;100.00
10470;BME280;5282;47.052;15.458;2023-03-21T01:32:43;97623.22;;;7.67;100.00
10470;BME280;5282;47.052;15.458;2023-03-21T01:35:10;97627.19;;;7.63;100.00
10470;BME280;5282;47.052;15.458;2023-03-21T01:37:39;97617.44;;;7.62;100.00
10470;BME280;5282;47.052;15.458;2023-03-21T01:40:11;97622.38;;;7.66;100.00
10470;BME280;5282;47.052;15.458;2023-03-21T01:42:44;97622.88;;;7.80;100.00
10470;BME280;5282;47.052;15.458;2023-03-21T01:48:12;97616.97;;;7.76;100.00
10470;BME280;5282;47.052;15.458;2023-03-21T01:50:40;97614.06;;;7.60;100.00
10470;BME280;5282;47.052;15.458;2023-03-21T01:53:09;97606.09;;;7.50;100.00
10470;BME280;5282;47.052;15.458;2023-03-21T01:55:37;97610.59;;;7.49;100.00
10470;BME280;5282;47.052;15.458;2023-03-21T01:58:05;97603.53;;;7.48;100.00
10470;BME280;5282;47.052;15.458;2023-03-21T02:00:34;97594.47;;;7.59;100.00
10470;BME280;5282;47.052;15.458;2023-03-21T02:03:04;97593.22;;;7.63;100.00
10470;BME280;5282;47.052;15.458;2023-03-21T02:05:37;97588.53;;;7.65;100.00
10470;BME280;5282;47.052;15.458;2023-03-21T02:08:10;97587.16;;;7.61;100.00
10470;BME280;5282;47.052;15.458;2023-03-21T02:10:38;97583.75;;;7.59;100.00
10470;BME280;5282;47.052;15.458;2023-03-21T02:13:06;97582.38;;;7.55;100.00
10470;BME280;5282;47.052;15.458;2023-03-21T02:15:35;97582.72;;;7.32;100.00
10470;BME280;5282;47.052;15.458;2023-03-21T02:18:09;97583.53;;;7.43;100.00
10470;BME280;5282;47.052;15.458;2023-03-21T02:27:01;97582.47;;;7.25;100.00
10470;BME280;5282;47.052;15.458;2023-03-21T02:29:58;97587.22;;;7.41;100.00
10470;BME280;5282;47.052;15.458;2023-03-21T02:32:39;97584.13;;;7.36;100.00
10470;BME280;5282;47.052;15.458;2023-03-21T02:35:24;97582.78;;;7.03;100.00
10470;BME280;5282;47.052;15.458;2023-03-21T02:38:02;97579.66;;;7.17;100.00
10470;BME280;5282;47.052;15.458;2023-03-21T02:40:38;97580.44;;;6.90;100.00
10470;BME280;5282;47.052;15.458;2023-03-21T02:43:11;97580.16;;;6.73;100.00
10470;BME280;5282;47.052;15.458;2023-03-21T02:45:44;97585.25;;;6.86;100.00
10470;BME280;5282;47.052;15.458;2023-03-21T02:48:15;97581.16;;;6.82;100.00
10470;BME280;5282;47.052;15.458;2023-03-21T02:50:47;97584.53;;;6.74;100.00
10470;BME280;5282;47.052;15.458;2023-03-21T02:53:19;97590.59;;;6.47;100.00
10470;BME280;5282;47.052;15.458;2023-03-21T02:55:49;97586.66;;;6.41;100.00
10470;BME280;5282;47.052;15.458;2023-03-21T02:58:20;97578.63;;;6.41;100.00
10470;BME280;5282;47.052;15.458;2023-03-21T03:00:49;97582.28;;;6.50;100.00
10470;BME280;5282;47.052;15.458;2023-03-21T03:03:21;97582.88;;;6.44;100.00
10470;BME280;5282;47.052;15.458;2023-03-21T03:05:50;97580.88;;;6.36;100.00
10470;BME280;5282;47.052;15.458;2023-03-21T03:08:26;97582.88;;;6.44;100.00
10470;BME280;5282;47.052;15.458;2023-03-21T03:11:07;97576.38;;;6.37;100.00
10470;BME280;5282;47.052;15.458;2023-03-21T03:13:50;97582.84;;;6.34;100.00
10470;BME280;5282;47.052;15.458;2023-03-21T03:16:27;97583.94;;;6.12;100.00
10470;BME280;5282;47.052;15.458;2023-03-21T03:19:03;97587.59;;;6.01;100.00
10470;BME280;5282;47.052;15.458;2023-03-21T03:21:39;97583.66;;;6.05;100.00
10470;BME280;5282;47.052;15.458;2023-03-21T03:24:15;97580.03;;;6.26;100.00
10470;BME280;5282;47.052;15.458;2023-03-21T03:26:49;97580.16;;;6.24;100.00
10470;BME280;5282;47.052;15.458;2023-03-21T03:29:17;97588.47;;;6.31;100.00
10470;BME280;5282;47.052;15.458;2023-03-21T03:31:48;97588.19;;;6.34;100.00
10470;BME280;5282;47.052;15.458;2023-03-21T03:34:18;97590.41;;;6.09;100.00
10470;BME280;5282;47.052;15.458;2023-03-21T03:36:50;97591.53;;;6.07;100.00
10470;BME280;5282;47.052;15.458;2023-03-21T03:39:24;97591.47;;;5.97;100.00
10470;BME280;5282;47.052;15.458;2023-03-21T03:41:56;97587.47;;;6.12;100.00
10470;BME280;5282;47.052;15.458;2023-03-21T03:44:24;97592.25;;;6.18;100.00
10470;BME280;5282;47.052;15.458;2023-03-21T03:46:57;97587.09;;;6.27;100.00
10470;BME280;5282;47.052;15.458;2023-03-21T03:49:26;97584.00;;;6.31;100.00
10470;BME280;5282;47.052;15.458;2023-03-21T03:51:58;97585.66;;;6.23;100.00
10470;BME280;5282;47.052;15.458;2023-03-21T03:54:35;97585.09;;;6.19;100.00
10470;BME280;5282;47.052;15.458;2023-03-21T03:57:03;97582.28;;;6.21;100.00
10470;BME280;5282;47.052;15.458;2023-03-21T03:59:33;97588.06;;;6.26;100.00
10470;BME280;5282;47.052;15.458;2023-03-21T04:02:00;97583.69;;;6.25;100.00
10470;BME280;5282;47.052;15.458;2023-03-21T04:04:28;97583.41;;;6.28;100.00
10470;BME280;5282;47.052;15.458;2023-03-21T04:06:56;97592.13;;;6.30;100.00
10470;BME280;5282;47.052;15.458;2023-03-21T04:09:24;97584.81;;;6.32;100.00
10470;BME280;5282;47.052;15.458;2023-03-21T04:11:54;97583.84;;;6.33;100.00
10470;BME280;5282;47.052;15.458;2023-03-21T04:14:21;97585.50;;;6.24;100.00
10470;BME280;5282;47.052;15.458;2023-03-21T04:16:48;97592.00;;;6.22;100.00
10470;BME280;5282;47.052;15.458;2023-03-21T04:19:17;97589.56;;;6.18;100.00
10470;BME280;5282;47.052;15.458;2023-03-21T04:21:44;97593.53;;;6.14;100.00
10470;BME280;5282;47.052;15.458;2023-03-21T04:24:12;97590.41;;;6.09;100.00
10470;BME280;5282;47.052;15.458;2023-03-21T04:26:39;97594.34;;;6.05;100.00
10470;BME280;5282;47.052;15.458;2023-03-21T04:29:08;97594.88;;;5.99;100.00
10470;BME280;5282;47.052;15.458;2023-03-21T04:31:35;97594.16;;;5.97;100.00
10470;BME280;5282;47.052;15.458;2023-03-21T04:34:04;97595.13;;;5.96;100.00
10470;BME280;5282;47.052;15.458;2023-03-21T04:36:37;97596.00;;;5.96;100.00
10470;BME280;5282;47.052;15.458;2023-03-21T04:39:09;97598.72;;;5.75;100.00
10470;BME280;5282;47.052;15.458;2023-03-21T04:41:38;97601.03;;;5.90;100.00
10470;BME280;5282;47.052;15.458;2023-03-21T04:44:05;97606.66;;;5.86;100.00
10470;BME280;5282;47.052;15.458;2023-03-21T04:46:34;97601.00;;;5.80;100.00
10470;BME280;5282;47.052;15.458;2023-03-21T04:49:01;97605.91;;;5.75;100.00
10470;BME280;5282;47.052;15.458;2023-03-21T04:51:28;97600.72;;;5.42;100.00
10470;BME280;5282;47.052;15.458;2023-03-21T04:53:55;97603.00;;;5.25;100.00
10470;BME280;5282;47.052;15.458;2023-03-21T04:56:23;97604.34;;;5.10;100.00
10470;BME280;5282;47.052;15.458;2023-03-21T04:58:56;97600.88;;;5.19;100.00
10470;BME280;5282;47.052;15.458;2023-03-21T05:01:23;97603.22;;;5.13;100.00
10470;BME280;5282;47.052;15.458;2023-03-21T05:03:58;97607.41;;;4.84;100.00
10470;BME280;5282;47.052;15.458;2023-03-21T05:06:25;97610.00;;;5.17;100.00
10470;BME280;5282;47.052;15.458;2023-03-21T05:08:53;97617.88;;;5.18;100.00
10470;BME280;5282;47.052;15.458;2023-03-21T05:11:24;97609.72;;;5.20;100.00
10470;BME280;5282;47.052;15.458;2023-03-21T05:13:53;97614.28;;;5.29;100.00
10470;BME280;5282;47.052;15.458;2023-03-21T05:16:20;97612.59;;;5.28;100.00
10470;BME280;5282;47.052;15.458;2023-03-21T05:18:51;97616.50;;;5.24;100.00
10470;BME280;5282;47.052;15.458;2023-03-21T05:21:21;97622.66;;;5.24;100.00
10470;BME280;5282;47.052;15.458;2023-03-21T05:23:48;97616.72;;;5.11;100.00
10470;BME280;5282;47.052;15.458;2023-03-21T05:26:19;97617.41;;;5.13;100.00
10470;BME280;5282;47.052;15.458;2023-03-21T05:28:47;97617.22;;;5.05;100.00
10470;BME280;5282;47.052;15.458;2023-03-21T05:31:17;97624.66;;;5.01;100.00
10470;BME280;5282;47.052;15.458;2023-03-21T05:33:46;97616.06;;;4.98;100.00
10470;BME280;5282;47.052;15.458;2023-03-21T05:36:13;97627.19;;;5.03;100.00
10470;BME280;5282;47.052;15.458;2023-03-21T05:38:42;97619.31;;;5.01;100.00
10470;BME280;5282;47.052;15.458;2023-03-21T05:41:10;97628.38;;;5.10;100.00
10470;BME280;5282;47.052;15.458;2023-03-21T05:43:37;97628.81;;;5.15;100.00
10470;BME280;5282;47.052;15.458;2023-03-21T05:46:04;97626.31;;;5.23;100.00
10470;BME280;5282;47.052;15.458;2023-03-21T05:48:31;97628.81;;;5.15;100.00
10470;BME280;5282;47.052;15.458;2023-03-21T05:50:59;97631.06;;;5.20;100.00
10470;BME280;5282;47.052;15.458;2023-03-21T05:53:26;97627.50;;;5.31;100.00
10470;BME280;5282;47.052;15.458;2023-03-21T05:55:55;97629.91;;;5.34;100.00
10470;BME280;5282;47.052;15.458;2023-03-21T05:58:21;97632.63;;;5.44;100.00
10470;BME280;5282;47.052;15.458;2023-03-21T06:00:51;97631.78;;;5.43;100.00
10470;BME280;5282;47.052;15.458;2023-03-21T06:03:17;97629.69;;;5.47;100.00
10470;BME280;5282;47.052;15.458;2023-03-21T06:05:45;97636.50;;;5.30;100.00
10470;BME280;5282;47.052;15.458;2023-03-21T06:08:12;97636.66;;;5.38;100.00
10470;BME280;5282;47.052;15.458;2023-03-21T06:10:38;97638.53;;;5.47;100.00
10470;BME280;5282;47.052;15.458;2023-03-21T06:13:07;97644.19;;;5.54;100.00
10470;BME280;5282;47.052;15.458;2023-03-21T06:15:34;97639.88;;;5.63;100.00
10470;BME280;5282;47.052;15.458;2023-03-21T06:18:01;97646.50;;;5.68;100.00
10470;BME280;5282;47.052;15.458;2023-03-21T06:20:28;97641.72;;;5.62;100.00
10470;BME280;5282;47.052;15.458;2023-03-21T06:22:55;97635.88;;;5.78;100.00
10470;BME280;5282;47.052;15.458;2023-03-21T06:25:21;97636.50;;;5.92;100.00
10470;BME280;5282;47.052;15.458;2023-03-21T06:27:49;97647.88;;;5.94;100.00
10470;BME280;5282;47.052;15.458;2023-03-21T06:30:18;97644.16;;;6.06;100.00
10470;BME280;5282;47.052;15.458;2023-03-21T06:32:45;97643.06;;;6.18;100.00
10470;BME280;5282;47.052;15.458;2023-03-21T06:35:12;97646.31;;;6.32;100.00
10470;BME280;5282;47.052;15.458;2023-03-21T06:37:39;97647.91;;;6.44;100.00
10470;BME280;5282;47.052;15.458;2023-03-21T06:40:08;97643.25;;;6.56;100.00
10470;BME280;5282;47.052;15.458;2023-03-21T06:42:37;97648.75;;;6.64;100.00
10470;BME280;5282;47.052;15.458;2023-03-21T06:45:05;97642.28;;;6.77;100.00
10470;BME280;5282;47.052;15.458;2023-03-21T06:47:34;97649.31;;;6.88;100.00
10470;BME280;5282;47.052;15.458;2023-03-21T06:50:01;97654.25;;;6.92;100.00
10470;BME280;5282;47.052;15.458;2023-03-21T06:52:28;97646.78;;;7.16;100.00
10470;BME280;5282;47.052;15.458;2023-03-21T06:54:55;97653.81;;;7.17;100.00
10470;BME280;5282;47.052;15.458;2023-03-21T06:57:22;97652.09;;;7.35;100.00
10470;BME280;5282;47.052;15.458;2023-03-21T06:59:49;97650.22;;;7.46;100.00
10470;BME280;5282;47.052;15.458;2023-03-21T07:02:16;97643.00;;;7.56;100.00
10470;BME280;5282;47.052;15.458;2023-03-21T07:04:44;97646.19;;;7.69;100.00
10470;BME280;5282;47.052;15.458;2023-03-21T07:07:12;97650.59;;;7.61;100.00
10470;BME280;5282;47.052;15.458;2023-03-21T07:09:39;97642.97;;;7.66;100.00
10470;BME280;5282;47.052;15.458;2023-03-21T07:12:06;97645.91;;;7.72;100.00
10470;BME280;5282;47.052;15.458;2023-03-21T07:14:34;97646.03;;;7.81;100.00
10470;BME280;5282;47.052;15.458;2023-03-21T07:17:01;97645.31;;;7.79;100.00
10470;BME280;5282;47.052;15.458;2023-03-21T07:19:28;97643.16;;;7.92;100.00
10470;BME280;5282;47.052;15.458;2023-03-21T07:21:57;97644.94;;;8.01;100.00
10470;BME280;5282;47.052;15.458;2023-03-21T07:24:24;97641.69;;;8.08;100.00
10470;BME280;5282;47.052;15.458;2023-03-21T07:26:52;97642.75;;;8.15;100.00
10470;BME280;5282;47.052;15.458;2023-03-21T07:29:19;97646.22;;;8.25;100.00
10470;BME280;5282;47.052;15.458;2023-03-21T07:31:47;97647.41;;;8.41;100.00
10470;BME280;5282;47.052;15.458;2023-03-21T07:34:15;97642.84;;;8.51;100.00
10470;BME280;5282;47.052;15.458;2023-03-21T07:36:43;97635.97;;;8.67;100.00
10470;BME280;5282;47.052;15.458;2023-03-21T07:39:11;97645.16;;;8.82;100.00
10470;BME280;5282;47.052;15.458;2023-03-21T07:41:38;97642.25;;;8.93;100.00
10470;BME280;5282;47.052;15.458;2023-03-21T07:44:05;97645.75;;;9.12;100.00
10470;BME280;5282;47.052;15.458;2023-03-21T07:46:32;97635.00;;;9.30;100.00
10470;BME280;5282;47.052;15.458;2023-03-21T07:48:59;97635.25;;;9.45;100.00
10470;BME280;5282;47.052;15.458;2023-03-21T07:51:26;97634.19;;;9.64;100.00
10470;BME280;5282;47.052;15.458;2023-03-21T07:53:53;97638.03;;;9.62;100.00
10470;BME280;5282;47.052;15.458;2023-03-21T07:56:21;97630.06;;;9.78;100.00
10470;BME280;5282;47.052;15.458;2023-03-21T07:58:48;97631.47;;;9.91;100.00
10470;BME280;5282;47.052;15.458;2023-03-21T08:01:15;97626.50;;;10.12;100.00
10470;BME280;5282;47.052;15.458;2023-03-21T08:03:42;97628.59;;;10.27;100.00
10470;BME280;5282;47.052;15.458;2023-03-21T08:06:09;97625.47;;;10.48;100.00
10470;BME280;5282;47.052;15.458;2023-03-21T08:08:36;97623.81;;;10.63;100.00
10470;BME280;5282;47.052;15.458;2023-03-21T08:11:04;97623.31;;;10.76;100.00
10470;BME280;5282;47.052;15.458;2023-03-21T08:13:32;97618.97;;;10.84;100.00
10470;BME280;5282;47.052;15.458;2023-03-21T08:15:59;97616.81;;;11.04;100.00
10470;BME280;5282;47.052;15.458;2023-03-21T08:18:26;97614.59;;;11.07;93.03
10470;BME280;5282;47.052;15.458;2023-03-21T08:20:54;97612.22;;;11.29;90.60
10470;BME280;5282;47.052;15.458;2023-03-21T08:23:21;97606.84;;;11.29;93.72
10470;BME280;5282;47.052;15.458;2023-03-21T08:25:50;97608.16;;;11.41;93.91
10470;BME280;5282;47.052;15.458;2023-03-21T08:28:17;97610.84;;;11.50;90.62
10470;BME280;5282;47.052;15.458;2023-03-21T08:30:46;97613.84;;;11.63;90.75
10470;BME280;5282;47.052;15.458;2023-03-21T08:33:13;97606.75;;;11.79;82.67
10470;BME280;5282;47.052;15.458;2023-03-21T08:35:40;97602.47;;;11.93;77.80
10470;BME280;5282;47.052;15.458;2023-03-21T08:38:08;97600.53;;;12.18;78.91
10470;BME280;5282;47.052;15.458;2023-03-21T08:40:36;97594.72;;;12.29;77.37
10470;BME280;5282;47.052;15.458;2023-03-21T08:43:03;97597.34;;;12.46;72.80
10470;BME280;5282;47.052;15.458;2023-03-21T08:45:30;97586.81;;;12.59;68.57
10470;BME280;5282;47.052;15.458;2023-03-21T08:48:01;97588.66;;;12.82;71.19
10470;BME280;5282;47.052;15.458;2023-03-21T08:50:28;97595.69;;;12.91;65.68
10470;BME280;5282;47.052;15.458;2023-03-21T08:52:56;97589.00;;;13.02;61.71
10470;BME280;5282;47.052;15.458;2023-03-21T08:55:23;97591.09;;;13.15;58.37
10470;BME280;5282;47.052;15.458;2023-03-21T08:57:50;97594.75;;;13.22;58.90
10470;BME280;5282;47.052;15.458;2023-03-21T09:00:17;97596.94;;;13.42;58.66
10470;BME280;5282;47.052;15.458;2023-03-21T09:02:46;97598.00;;;13.56;57.10
10470;BME280;5282;47.052;15.458;2023-03-21T09:05:18;97584.00;;;13.82;60.17
10470;BME280;5282;47.052;15.458;2023-03-21T09:07:45;97593.50;;;13.93;54.52
10470;BME280;5282;47.052;15.458;2023-03-21T09:10:16;97586.13;;;14.32;49.08
10470;BME280;5282;47.052;15.458;2023-03-21T09:12:43;97583.97;;;14.64;47.76
10470;BME280;5282;47.052;15.458;2023-03-21T09:15:11;97587.53;;;14.49;48.22
10470;BME280;5282;47.052;15.458;2023-03-21T09:17:39;97598.44;;;14.34;48.56
10470;BME280;5282;47.052;15.458;2023-03-21T09:20:08;97591.66;;;14.09;48.86
10470;BME280;5282;47.052;15.458;2023-03-21T09:22:37;97582.66;;;14.23;48.06
10470;BME280;5282;47.052;15.458;2023-03-21T09:25:05;97588.84;;;14.54;48.19
10470;BME280;5282;47.052;15.458;2023-03-21T09:27:35;97584.72;;;14.94;48.66
10470;BME280;5282;47.052;15.458;2023-03-21T09:30:06;97581.06;;;15.37;45.08
10470;BME280;5282;47.052;15.458;2023-03-21T09:32:35;97576.84;;;15.28;44.18
10470;BME280;5282;47.052;15.458;2023-03-21T09:35:03;97576.59;;;15.23;44.01
10470;BME280;5282;47.052;15.458;2023-03-21T09:37:31;97570.97;;;15.24;42.65
10470;BME280;5282;47.052;15.458;2023-03-21T09:40:00;97572.72;;;15.32;42.62
10470;BME280;5282;47.052;15.458;2023-03-21T09:42:36;97566.38;;;15.53;42.04
10470;BME280;5282;47.052;15.458;2023-03-21T09:45:10;97564.59;;;15.67;41.52
10470;BME280;5282;47.052;15.458;2023-03-21T09:47:42;97561.50;;;15.77;41.48
10470;BME280;5282;47.052;15.458;2023-03-21T09:50:20;97557.00;;;15.84;43.88
10470;BME280;5282;47.052;15.458;2023-03-21T09:52:56;97560.50;;;15.50;41.60
10470;BME280;5282;47.052;15.458;2023-03-21T09:55:27;97550.69;;;15.20;42.02
10470;BME280;5282;47.052;15.458;2023-03-21T09:58:02;97544.81;;;15.80;42.79
10470;BME280;5282;47.052;15.458;2023-03-21T10:00:35;97544.38;;;16.12;41.42
10470;BME280;5282;47.052;15.458;2023-03-21T10:03:05;97539.53;;;16.00;42.80
10470;BME280;5282;47.052;15.458;2023-03-21T10:05:39;97537.84;;;15.99;42.70
10470;BME280;5282;47.052;15.458;2023-03-21T10:08:13;97541.25;;;16.08;43.17
10470;BME280;5282;47.052;15.458;2023-03-21T10:10:46;97542.66;;;16.04;42.42
10470;BME280;5282;47.052;15.458;2023-03-21T10:13:16;97538.22;;;15.89;42.76
10470;BME280;5282;47.052;15.458;2023-03-21T10:15:46;97545.47;;;15.82;42.88
10470;BME280;5282;47.052;15.458;2023-03-21T10:18:20;97545.38;;;15.34;41.75
10470;BME280;5282;47.052;15.458;2023-03-21T10:20:48;97542.13;;;15.45;42.72
10470;BME280;5282;47.052;15.458;2023-03-21T10:23:18;97542.00;;;15.60;41.65
10470;BME280;5282;47.052;15.458;2023-03-21T10:25:50;97543.00;;;15.52;40.85
10470;BME280;5282;47.052;15.458;2023-03-21T10:28:21;97528.81;;;15.50;40.90
10470;BME280;5282;47.052;15.458;2023-03-21T10:30:50;97536.34;;;15.55;41.47
10470;BME280;5282;47.052;15.458;2023-03-21T10:33:21;97529.06;;;15.62;40.79
10470;BME280;5282;47.052;15.458;2023-03-21T10:35:51;97530.22;;;15.81;39.09
10470;BME280;5282;47.052;15.458;2023-03-21T10:38:21;97531.59;;;15.99;39.29
10470;BME280;5282;47.052;15.458;2023-03-21T10:40:51;97530.69;;;15.85;39.88
10470;BME280;5282;47.052;15.458;2023-03-21T10:43:29;97525.97;;;16.07;38.94
10470;BME280;5282;47.052;15.458;2023-03-21T10:46:05;97521.88;;;16.31;38.11
10470;BME280;5282;47.052;15.458;2023-03-21T10:48:35;97522.41;;;16.07;38.32
10470;BME280;5282;47.052;15.458;2023-03-21T10:51:04;97518.66;;;16.08;39.27
10470;BME280;5282;47.052;15.458;2023-03-21T10:53:35;97520.56;;;16.14;37.87
10470;BME280;5282;47.052;15.458;2023-03-21T10:56:08;97513.31;;;16.28;38.75
10470;BME280;5282;47.052;15.458;2023-03-21T10:58:40;97508.09;;;16.26;37.26
10470;BME280;5282;47.052;15.458;2023-03-21T11:01:12;97500.81;;;16.47;37.46
10470;BME280;5282;47.052;15.458;2023-03-21T11:03:42;97506.66;;;16.50;37.35
10470;BME280;5282;47.052;15.458;2023-03-21T11:06:14;97497.06;;;16.81;36.65
10470;BME280;5282;47.052;15.458;2023-03-21T11:08:46;97500.00;;;17.20;35.64
10470;BME280;5282;47.052;15.458;2023-03-21T11:11:23;97495.84;;;17.24;35.00
10470;BME280;5282;47.052;15.458;2023-03-21T11:13:57;97491.41;;;17.37;34.83
10470;BME280;5282;47.052;15.458;2023-03-21T11:16:29;97487.28;;;17.01;34.93
10470;BME280;5282;47.052;15.458;2023-03-21T11:19:02;97477.59;;;17.32;35.81
10470;BME280;5282;47.052;15.458;2023-03-21T11:21:37;97476.38;;;17.14;35.50
10470;BME280;5282;47.052;15.458;2023-03-21T11:24:05;97469.69;;;16.76;35.82
10470;BME280;5282;47.052;15.458;2023-03-21T11:26:38;97473.44;;;16.69;36.29
10470;BME280;5282;47.052;15.458;2023-03-21T11:29:16;97470.75;;;16.95;37.16
10470;BME280;5282;47.052;15.458;2023-03-21T11:31:46;97466.13;;;17.16;36.30
10470;BME280;5282;47.052;15.458;2023-03-21T11:34:23;97457.34;;;16.87;35.29
10470;BME280;5282;47.052;15.458;2023-03-21T11:36:52;97460.06;;;17.14;35.86
10470;BME280;5282;47.052;15.458;2023-03-21T11:39:36;97454.59;;;17.27;34.21
10470;BME280;5282;47.052;15.458;2023-03-21T11:42:25;97459.75;;;17.63;35.00
10470;BME280;5282;47.052;15.458;2023-03-21T11:45:00;97449.84;;;17.75;34.63
10470;BME280;5282;47.052;15.458;2023-03-21T11:47:28;97443.00;;;18.11;35.24
10470;BME280;5282;47.052;15.458;2023-03-21T11:49:56;97446.44;;;18.32;34.63
10470;BME280;5282;47.052;15.458;2023-03-21T11:52:31;97437.34;;;19.02;34.13
10470;BME280;5282;47.052;15.458;2023-03-21T11:55:24;97424.63;;;19.52;33.45
10470;BME280;5282;47.052;15.458;2023-03-21T11:58:08;97422.66;;;19.59;33.43
10470;BME280;5282;47.052;15.458;2023-03-21T12:00:43;97435.13;;;19.11;32.29
10470;BME280;5282;47.052;15.458;2023-03-21T12:03:29;97433.81;;;18.70;33.77
10470;BME280;5282;47.052;15.458;2023-03-21T12:06:10;97433.91;;;17.79;34.47
10470;BME280;5282;47.052;15.458;2023-03-21T12:08:46;97425.75;;;17.79;34.50
10470;BME280;5282;47.052;15.458;2023-03-21T12:11:20;97427.34;;;17.48;34.83
10470;BME280;5282;47.052;15.458;2023-03-21T12:14:01;97420.53;;;17.18;35.05
10470;BME280;5282;47.052;15.458;2023-03-21T12:16:38;97418.19;;;17.35;36.79
10470;BME280;5282;47.052;15.458;2023-03-21T12:19:20;97411.03;;;17.93;35.01
10470;BME280;5282;47.052;15.458;2023-03-21T12:21:57;97404.28;;;17.96;33.93
10470;BME280;5282;47.052;15.458;2023-03-21T12:24:31;97397.16;;;18.59;33.72
10470;BME280;5282;47.052;15.458;2023-03-21T12:27:03;97395.34;;;19.03;33.05
10470;BME280;5282;47.052;15.458;2023-03-21T12:29:46;97393.84;;;19.45;32.13
10470;BME280;5282;47.052;15.458;2023-03-21T12:32:24;97392.66;;;20.20;31.36
10470;BME280;5282;47.052;15.458;2023-03-21T12:35:08;97388.44;;;19.75;32.08
10470;BME280;5282;47.052;15.458;2023-03-21T12:37:47;97388.72;;;20.58;32.20
10470;BME280;5282;47.052;15.458;2023-03-21T12:40:25;97386.97;;;20.22;33.24
10470;BME280;5282;47.052;15.458;2023-03-21T12:43:11;97375.28;;;20.14;30.88
10470;BME280;5282;47.052;15.458;2023-03-21T12:45:48;97382.31;;;20.22;30.47
10470;BME280;5282;47.052;15.458;2023-03-21T12:48:23;97374.34;;;19.22;31.89
10470;BME280;5282;47.052;15.458;2023-03-21T12:50:54;97373.91;;;19.44;32.67
10470;BME280;5282;47.052;15.458;2023-03-21T12:53:31;97370.19;;;19.01;32.21
10470;BME280;5282;47.052;15.458;2023-03-21T12:56:04;97372.56;;;18.65;33.76
10470;BME280;5282;47.052;15.458;2023-03-21T12:58:38;97365.25;;;18.66;33.15
10470;BME280;5282;47.052;15.458;2023-03-21T13:01:10;97361.22;;;18.18;33.54
10470;BME280;5282;47.052;15.458;2023-03-21T13:03:40;97355.41;;;18.40;33.06
10470;BME280;5282;47.052;15.458;2023-03-21T13:06:12;97353.13;;;18.62;34.05
10470;BME280;5282;47.052;15.458;2023-03-21T13:08:43;97350.72;;;18.72;34.56
10470;BME280;5282;47.052;15.458;2023-03-21T13:11:14;97347.28;;;19.39;34.02
10470;BME280;5282;47.052;15.458;2023-03-21T13:13:46;97344.09;;;19.92;31.99
10470;BME280;5282;47.052;15.458;2023-03-21T13:16:19;97335.66;;;20.35;31.19
10470;BME280;5282;47.052;15.458;2023-03-21T13:18:58;97333.66;;;20.66;31.85
10470;BME280;5282;47.052;15.458;2023-03-21T13:21:40;97329.78;;;20.20;29.96
10470;BME280;5282;47.052;15.458;2023-03-21T13:24:19;97324.63;;;19.39;30.55
10470;BME280;5282;47.052;15.458;2023-03-21T13:26:58;97322.81;;;19.63;31.50